ACH2055 LEIB-OKKK
Flight info
| Callsign | ACH2055 |
|---|---|
| Flight time | N/A |
| Altitude | 32000 |
| Route | MHN M603 MORSS DCT XATOS DCT GERMO DCT VAKOR DCT CDC DCT RUTOM UM601 MIL UN134 VANZA N134 TULEP N318 NEVOL Q255 PAXAN G669 BUBER |
| Aircraft | B738/M-SDE2E3FGHIRWXY/LB1 |
Departure
| Time | N/A |
|---|---|
| Airport | Ibiza Airport (LEIB) |
Arrival
| Time | 2026-05-08 09:07 |
|---|---|
| Airport | Kuwait International Airport (OKKK) |
| Time | Latitude | Longitude | Altitude | Speed | Heading |
|---|---|---|---|---|---|
| 2026-05-08 08:42 | 29.65192 | 45.56946 | 35049 ft | 481 kts | 122° |
| 2026-05-08 08:42 | 29.62918 | 45.64179 | 35048 ft | 482 kts | 122° |
| 2026-05-08 08:43 | 29.60629 | 45.71445 | 35041 ft | 484 kts | 122° |
| 2026-05-08 08:43 | 29.58333 | 45.78723 | 35017 ft | 484 kts | 122° |
| 2026-05-08 08:44 | 29.56033 | 45.85996 | 35033 ft | 485 kts | 122° |
| 2026-05-08 08:44 | 29.53720 | 45.93291 | 35041 ft | 486 kts | 122° |
| 2026-05-08 08:45 | 29.51415 | 46.00546 | 34950 ft | 488 kts | 122° |
| 2026-05-08 08:45 | 29.50233 | 46.04241 | 34291 ft | 497 kts | 122° |
| 2026-05-08 08:45 | 29.49056 | 46.07939 | 33560 ft | 489 kts | 122° |
| 2026-05-08 08:46 | 29.47902 | 46.11586 | 32763 ft | 482 kts | 121° |
| 2026-05-08 08:46 | 29.46764 | 46.15177 | 31983 ft | 476 kts | 121° |
| 2026-05-08 08:46 | 29.45639 | 46.18717 | 31196 ft | 469 kts | 121° |
| 2026-05-08 08:46 | 29.44524 | 46.22210 | 30390 ft | 464 kts | 121° |
| 2026-05-08 08:47 | 29.43415 | 46.25672 | 29451 ft | 459 kts | 120° |
| 2026-05-08 08:47 | 29.42317 | 46.29090 | 28674 ft | 450 kts | 120° |
| 2026-05-08 08:47 | 29.41253 | 46.32418 | 28012 ft | 439 kts | 120° |
| 2026-05-08 08:47 | 29.40210 | 46.35662 | 27424 ft | 439 kts | 119° |
| 2026-05-08 08:48 | 29.39124 | 46.38998 | 26795 ft | 455 kts | 118° |
| 2026-05-08 08:48 | 29.37992 | 46.42458 | 26138 ft | 471 kts | 118° |
| 2026-05-08 08:48 | 29.36864 | 46.45950 | 25452 ft | 460 kts | 117° |
| 2026-05-08 08:48 | 29.35776 | 46.49353 | 24793 ft | 448 kts | 117° |
| 2026-05-08 08:49 | 29.34713 | 46.52680 | 24156 ft | 438 kts | 116° |
| 2026-05-08 08:49 | 29.33669 | 46.55927 | 23491 ft | 431 kts | 116° |
| 2026-05-08 08:49 | 29.32635 | 46.59131 | 22756 ft | 423 kts | 116° |
| 2026-05-08 08:49 | 29.31614 | 46.62281 | 22127 ft | 424 kts | 116° |
| 2026-05-08 08:50 | 29.30560 | 46.65509 | 21491 ft | 437 kts | 115° |
| 2026-05-08 08:50 | 29.29493 | 46.68781 | 20827 ft | 434 kts | 115° |
| 2026-05-08 08:50 | 29.28459 | 46.71975 | 20185 ft | 422 kts | 115° |
| 2026-05-08 08:50 | 29.27452 | 46.75089 | 19571 ft | 410 kts | 114° |
| 2026-05-08 08:51 | 29.26469 | 46.78117 | 18972 ft | 402 kts | 114° |
| 2026-05-08 08:51 | 29.25500 | 46.81095 | 18368 ft | 396 kts | 114° |
| 2026-05-08 08:51 | 29.24541 | 46.84034 | 17698 ft | 392 kts | 114° |
| 2026-05-08 08:51 | 29.23576 | 46.86985 | 17077 ft | 402 kts | 114° |
| 2026-05-08 08:52 | 29.22586 | 46.90012 | 16441 ft | 408 kts | 113° |
| 2026-05-08 08:52 | 29.21605 | 46.93020 | 15816 ft | 398 kts | 113° |
| 2026-05-08 08:52 | 29.20667 | 46.95899 | 15222 ft | 386 kts | 113° |
| 2026-05-08 08:52 | 29.19740 | 46.98735 | 14639 ft | 375 kts | 113° |
| 2026-05-08 08:53 | 29.18877 | 47.01522 | 14093 ft | 369 kts | 108° |
| 2026-05-08 08:53 | 29.18418 | 47.04388 | 13846 ft | 365 kts | 99° |
| 2026-05-08 08:53 | 29.18092 | 47.07351 | 13606 ft | 384 kts | 99° |
| 2026-05-08 08:53 | 29.17757 | 47.10415 | 13340 ft | 391 kts | 99° |
| 2026-05-08 08:54 | 29.17420 | 47.13475 | 12761 ft | 382 kts | 99° |
| 2026-05-08 08:54 | 29.17090 | 47.16458 | 12178 ft | 370 kts | 99° |
| 2026-05-08 08:54 | 29.16765 | 47.19340 | 11598 ft | 361 kts | 99° |
| 2026-05-08 08:54 | 29.16441 | 47.22181 | 11039 ft | 359 kts | 99° |
| 2026-05-08 08:55 | 29.16125 | 47.24943 | 10816 ft | 348 kts | 99° |
| 2026-05-08 08:55 | 29.15806 | 47.27701 | 10642 ft | 352 kts | 99° |
| 2026-05-08 08:55 | 29.15485 | 47.30463 | 10476 ft | 344 kts | 99° |
| 2026-05-08 08:55 | 29.15181 | 47.33101 | 10311 ft | 326 kts | 99° |
| 2026-05-08 08:56 | 29.14891 | 47.35612 | 10169 ft | 310 kts | 100° |
| 2026-05-08 08:56 | 29.14614 | 47.38006 | 10035 ft | 297 kts | 100° |
| 2026-05-08 08:56 | 29.14345 | 47.40314 | 9748 ft | 290 kts | 100° |
| 2026-05-08 08:56 | 29.14078 | 47.42584 | 9441 ft | 285 kts | 100° |
| 2026-05-08 08:57 | 29.13815 | 47.44827 | 9149 ft | 285 kts | 99° |
| 2026-05-08 08:57 | 29.13548 | 47.47092 | 8849 ft | 289 kts | 100° |
| 2026-05-08 08:57 | 29.13278 | 47.49372 | 8545 ft | 296 kts | 99° |
| 2026-05-08 08:57 | 29.13001 | 47.51721 | 8213 ft | 298 kts | 99° |
| 2026-05-08 08:58 | 29.12727 | 47.54052 | 7885 ft | 291 kts | 99° |
| 2026-05-08 08:58 | 29.12460 | 47.56323 | 7570 ft | 285 kts | 98° |
| 2026-05-08 08:58 | 29.12197 | 47.58551 | 7272 ft | 280 kts | 99° |
| 2026-05-08 08:58 | 29.11940 | 47.60734 | 6972 ft | 275 kts | 98° |
| 2026-05-08 08:59 | 29.11687 | 47.62871 | 6672 ft | 272 kts | 98° |
| 2026-05-08 08:59 | 29.11428 | 47.65053 | 6381 ft | 276 kts | 98° |
| 2026-05-08 08:59 | 29.11169 | 47.67232 | 6052 ft | 282 kts | 98° |
| 2026-05-08 08:59 | 29.10903 | 47.69469 | 5753 ft | 282 kts | 97° |
| 2026-05-08 09:00 | 29.10641 | 47.71669 | 5443 ft | 276 kts | 97° |
| 2026-05-08 09:00 | 29.10385 | 47.73816 | 5146 ft | 269 kts | 96° |
| 2026-05-08 09:00 | 29.10135 | 47.75910 | 4864 ft | 263 kts | 95° |
| 2026-05-08 09:00 | 29.09890 | 47.77957 | 4581 ft | 256 kts | 95° |
| 2026-05-08 09:01 | 29.09652 | 47.79943 | 4315 ft | 249 kts | 96° |
| 2026-05-08 09:01 | 29.09419 | 47.81891 | 4036 ft | 245 kts | 96° |
| 2026-05-08 09:01 | 29.09190 | 47.83807 | 3782 ft | 248 kts | 94° |
| 2026-05-08 09:01 | 29.08955 | 47.85780 | 3569 ft | 250 kts | 94° |
| 2026-05-08 09:02 | 29.08719 | 47.87739 | 3451 ft | 245 kts | 95° |
| 2026-05-08 09:02 | 29.08492 | 47.89609 | 3347 ft | 228 kts | 95° |
| 2026-05-08 09:02 | 29.08283 | 47.91332 | 3249 ft | 209 kts | 94° |
| 2026-05-08 09:02 | 29.08092 | 47.92901 | 3138 ft | 191 kts | 94° |
| 2026-05-08 09:03 | 29.07918 | 47.94336 | 3078 ft | 177 kts | 94° |
| 2026-05-08 09:03 | 29.07751 | 47.95729 | 3050 ft | 173 kts | 95° |
| 2026-05-08 09:03 | 29.07588 | 47.97075 | 2948 ft | 170 kts | 96° |
| 2026-05-08 09:03 | 29.07424 | 47.98463 | 2711 ft | 184 kts | 93° |
| 2026-05-08 09:04 | 29.07670 | 47.99825 | 2568 ft | 173 kts | 51° |
| 2026-05-08 09:04 | 29.08683 | 48.00454 | 2265 ft | 170 kts | 4° |
| 2026-05-08 09:04 | 29.09801 | 48.00372 | 2115 ft | 153 kts | 359° |
| 2026-05-08 09:04 | 29.10806 | 48.00236 | 1882 ft | 140 kts | 348° |
| 2026-05-08 09:05 | 29.11734 | 47.99915 | 1724 ft | 143 kts | 342° |
| 2026-05-08 09:05 | 29.12690 | 47.99540 | 1531 ft | 145 kts | 340° |
| 2026-05-08 09:05 | 29.13600 | 47.99103 | 1341 ft | 139 kts | 336° |
| 2026-05-08 09:05 | 29.14479 | 47.98641 | 1185 ft | 141 kts | 337° |
| 2026-05-08 09:06 | 29.15361 | 47.98166 | 1023 ft | 140 kts | 338° |
| 2026-05-08 09:06 | 29.16240 | 47.97696 | 837 ft | 140 kts | 339° |
| 2026-05-08 09:06 | 29.17109 | 47.97228 | 682 ft | 137 kts | 338° |
| 2026-05-08 09:06 | 29.17980 | 47.96761 | 493 ft | 138 kts | 339° |
| 2026-05-08 09:07 | 29.18856 | 47.96300 | 305 ft | 139 kts | 336° |
| 2026-05-08 09:07 | 29.19722 | 47.95839 | 212 ft | 128 kts | 337° |
| 2026-05-08 09:07 | 29.20333 | 47.95524 | 215 ft | 51 kts | 337° |
| 2026-05-08 09:07 | 29.20595 | 47.95439 | 220 ft | 32 kts | 325° |
| 2026-05-08 09:08 | 29.20768 | 47.95310 | 213 ft | 29 kts | 335° |
| 2026-05-08 09:08 | 29.20937 | 47.95203 | 209 ft | 27 kts | 331° |
| 2026-05-08 09:08 | 29.21100 | 47.95117 | 219 ft | 25 kts | 335° |
| 2026-05-08 09:08 | 29.21257 | 47.95056 | 214 ft | 23 kts | 355° |
| 2026-05-08 09:09 | 29.21413 | 47.95063 | 214 ft | 22 kts | 6° |
| 2026-05-08 09:09 | 29.21566 | 47.95081 | 221 ft | 22 kts | 358° |
| 2026-05-08 09:09 | 29.21713 | 47.95036 | 218 ft | 22 kts | 339° |
| 2026-05-08 09:09 | 29.21850 | 47.94967 | 214 ft | 22 kts | 335° |
| 2026-05-08 09:10 | 29.21968 | 47.94985 | 211 ft | 13 kts | 56° |
| 2026-05-08 09:10 | 29.22010 | 47.95072 | 213 ft | 13 kts | 62° |
| 2026-05-08 09:10 | 29.22043 | 47.95133 | 205 ft | 14 kts | 58° |
| 2026-05-08 09:10 | 29.22163 | 47.95142 | 203 ft | 16 kts | 325° |